Time;durP1;ratioP1;P1;durP2;ratioP2;P2;SDS_P1;SDS_P2;PMS_P1;PMS_P2;Temp;Humidity;BMP_temperature;BMP_pressure;BME280_temperature;BME280_humidity;BME280_pressure;Samples;Min_cycle;Max_cycle;Signal;HPM_P1;HPM_P2
2020/12/24 00:00:00;;;;;;;152.63;98.07;;;10.50;99.90;;;;;;5107235;28;20073;-69
2020/12/24 00:02:30;;;;;;;145.48;95.18;;;10.40;99.90;;;;;;5103003;28;20118;-73
2020/12/24 00:04:56;;;;;;;143.07;91.88;;;10.40;99.90;;;;;;5091534;28;20028;-72
2020/12/24 00:07:22;;;;;;;141.27;91.95;;;10.30;99.90;;;;;;5092662;28;20466;-72
2020/12/24 00:09:48;;;;;;;147.00;95.43;;;10.30;99.90;;;;;;5093380;28;20020;-73
2020/12/24 00:12:13;;;;;;;152.93;96.90;;;10.20;99.90;;;;;;5092021;28;20059;-72
2020/12/24 00:14:40;;;;;;;150.85;97.40;;;10.20;99.90;;;;;;5089485;28;20019;-72
2020/12/24 00:17:06;;;;;;;155.55;95.63;;;10.30;99.90;;;;;;5092191;28;20102;-72
2020/12/24 00:19:32;;;;;;;159.98;96.05;;;10.30;99.90;;;;;;5093474;28;20077;-72
2020/12/24 00:21:58;;;;;;;136.63;92.32;;;10.30;99.90;;;;;;5092709;28;20028;-73
2020/12/24 00:24:23;;;;;;;147.95;95.18;;;10.40;99.90;;;;;;5091731;28;20039;-73
2020/12/24 00:26:49;;;;;;;153.57;95.55;;;10.30;99.90;;;;;;5093348;28;20080;-73
2020/12/24 00:29:15;;;;;;;145.32;94.50;;;10.40;99.90;;;;;;5088776;28;20024;-73
2020/12/24 00:31:40;;;;;;;158.45;96.47;;;10.40;99.90;;;;;;5088691;28;20153;-72
2020/12/24 00:34:07;;;;;;;148.07;93.22;;;10.40;99.90;;;;;;5092158;28;20669;-73
2020/12/24 00:36:33;;;;;;;148.45;92.40;;;10.30;99.90;;;;;;5075078;28;20029;-70
2020/12/24 00:38:59;;;;;;;158.50;97.40;;;10.30;99.90;;;;;;5078731;28;20510;-70
2020/12/24 00:41:25;;;;;;;150.85;95.63;;;10.30;99.90;;;;;;5093295;28;20032;-72
2020/12/24 00:43:51;;;;;;;144.80;95.20;;;10.40;99.90;;;;;;5092353;28;20032;-72
2020/12/24 00:46:17;;;;;;;162.48;95.80;;;10.40;99.90;;;;;;5093350;28;20035;-71
2020/12/24 00:48:43;;;;;;;151.30;96.45;;;10.40;99.90;;;;;;5090460;28;20059;-74
2020/12/24 00:51:09;;;;;;;156.98;94.30;;;10.40;99.90;;;;;;5084284;28;20051;-73
2020/12/24 00:53:35;;;;;;;153.30;91.75;;;10.40;99.90;;;;;;5088705;28;20541;-73
2020/12/24 00:56:01;;;;;;;159.35;97.35;;;10.40;99.90;;;;;;5092946;28;20020;-73
2020/12/24 00:58:26;;;;;;;153.05;97.32;;;10.40;99.90;;;;;;5086640;28;20043;-72
2020/12/24 01:00:52;;;;;;;150.43;94.45;;;10.40;99.90;;;;;;5083984;28;20070;-72
2020/12/24 01:03:18;;;;;;;146.00;93.30;;;10.40;99.90;;;;;;5087886;28;20024;-73
2020/12/24 01:05:44;;;;;;;145.73;93.05;;;10.50;99.90;;;;;;5088318;28;20023;-72
2020/12/24 01:08:09;;;;;;;131.43;84.93;;;10.40;99.90;;;;;;5106697;28;20031;-71
2020/12/24 01:10:35;;;;;;;140.02;88.90;;;10.50;99.90;;;;;;5088924;28;20020;-73
2020/12/24 01:13:01;;;;;;;135.82;88.05;;;10.40;99.90;;;;;;5072770;28;20046;-72
2020/12/24 01:15:27;;;;;;;131.18;87.22;;;10.40;99.90;;;;;;5077045;28;20031;-72
2020/12/24 01:17:53;;;;;;;149.13;90.53;;;10.40;99.90;;;;;;5078931;28;20033;-72
2020/12/24 01:20:19;;;;;;;130.10;88.90;;;10.40;99.90;;;;;;5088616;28;20024;-72
2020/12/24 01:22:44;;;;;;;120.90;84.05;;;10.30;99.90;;;;;;5082567;28;20027;-70
2020/12/24 01:25:11;;;;;;;126.47;83.25;;;10.40;99.90;;;;;;5072663;28;20062;-72
2020/12/24 01:27:36;;;;;;;122.30;82.72;;;10.40;99.90;;;;;;5088072;28;20537;-72
2020/12/24 01:30:03;;;;;;;129.75;84.68;;;10.50;99.90;;;;;;5086407;28;20028;-72
2020/12/24 01:32:29;;;;;;;135.93;86.65;;;10.50;99.90;;;;;;5081916;28;20039;-70
2020/12/24 01:34:55;;;;;;;138.90;87.55;;;10.50;99.90;;;;;;5080471;28;20021;-71
2020/12/24 01:37:20;;;;;;;127.47;80.50;;;10.40;99.90;;;;;;5077918;28;20036;-72
2020/12/24 01:39:46;;;;;;;120.88;79.43;;;10.40;99.90;;;;;;5079272;28;20499;-72
2020/12/24 01:42:14;;;;;;;125.20;78.50;;;10.40;99.90;;;;;;5078931;28;20066;-73
2020/12/24 01:44:40;;;;;;;119.72;78.57;;;10.30;99.90;;;;;;5074494;28;20036;-72
2020/12/24 01:47:06;;;;;;;125.00;78.53;;;10.30;99.90;;;;;;5087960;28;20120;-71
2020/12/24 01:49:32;;;;;;;115.45;74.15;;;10.30;99.90;;;;;;5091557;28;20052;-71
2020/12/24 01:51:58;;;;;;;116.18;74.97;;;10.30;99.90;;;;;;5081355;28;20346;-72
2020/12/24 01:54:25;;;;;;;116.85;75.53;;;10.30;99.90;;;;;;5083662;28;20077;-71
2020/12/24 01:56:52;;;;;;;116.80;75.07;;;10.40;99.90;;;;;;5085033;28;20039;-73
2020/12/24 01:59:18;;;;;;;117.22;76.80;;;10.40;99.90;;;;;;5078447;28;20024;-70
2020/12/24 02:01:50;;;;;;;125.68;75.72;;;10.50;99.90;;;;;;5077631;28;20032;-71
2020/12/24 02:04:16;;;;;;;104.87;70.30;;;10.40;99.90;;;;;;5085931;28;20540;-72
2020/12/24 02:06:49;;;;;;;111.30;68.30;;;10.40;99.90;;;;;;5084963;28;20084;-71
2020/12/24 02:09:15;;;;;;;102.25;67.60;;;10.40;99.90;;;;;;5076513;28;20032;-72
2020/12/24 02:11:42;;;;;;;115.43;69.25;;;10.40;99.90;;;;;;5077786;28;20028;-71
2020/12/24 02:14:07;;;;;;;105.55;66.97;;;10.40;99.90;;;;;;5083899;28;20028;-73
2020/12/24 02:16:35;;;;;;;97.53;65.78;;;10.40;99.90;;;;;;5079645;28;20027;-73
2020/12/24 02:19:02;;;;;;;97.88;67.82;;;10.50;99.90;;;;;;5079211;28;20022;-71
2020/12/24 02:21:28;;;;;;;92.13;62.47;;;10.60;99.90;;;;;;5078426;28;20020;-73
2020/12/24 02:23:53;;;;;;;96.55;66.32;;;10.60;99.90;;;;;;5074815;28;20073;-71
2020/12/24 02:26:19;;;;;;;101.18;65.38;;;10.60;99.90;;;;;;5088787;28;20054;-72
2020/12/24 02:28:45;;;;;;;93.82;64.40;;;10.60;99.90;;;;;;5080297;28;20029;-74
2020/12/24 02:31:11;;;;;;;100.68;63.53;;;10.60;99.90;;;;;;5085024;28;20468;-73
2020/12/24 02:33:36;;;;;;;85.43;59.38;;;10.60;99.90;;;;;;5086377;28;20464;-72
2020/12/24 02:36:03;;;;;;;98.13;63.53;;;10.70;99.90;;;;;;5082177;28;20082;-71
2020/12/24 02:38:30;;;;;;;97.15;66.40;;;10.70;99.90;;;;;;5075863;28;20028;-71
2020/12/24 02:40:56;;;;;;;75.97;52.85;;;10.80;99.90;;;;;;5077647;28;20027;-72
2020/12/24 02:43:21;;;;;;;70.13;50.33;;;10.70;99.90;;;;;;5086732;28;20012;-71
2020/12/24 02:45:47;;;;;;;88.32;57.92;;;10.60;99.90;;;;;;5088856;28;20069;-73
2020/12/24 02:48:13;;;;;;;106.65;67.10;;;10.50;99.90;;;;;;5081099;28;20066;-72
2020/12/24 02:50:39;;;;;;;97.72;65.53;;;10.50;99.90;;;;;;5074370;28;20028;-71
2020/12/24 02:53:04;;;;;;;108.43;70.43;;;10.50;99.90;;;;;;5084008;28;20514;-72
2020/12/24 02:55:30;;;;;;;105.55;70.40;;;10.50;99.90;;;;;;5081663;28;20069;-72
2020/12/24 02:57:56;;;;;;;107.40;68.97;;;10.50;99.90;;;;;;5071867;28;20388;-73
2020/12/24 03:00:21;;;;;;;104.55;69.45;;;10.50;99.90;;;;;;5088684;28;20027;-72
2020/12/24 03:02:47;;;;;;;102.88;68.43;;;10.50;99.90;;;;;;5084963;28;20036;-71
2020/12/24 03:05:13;;;;;;;105.65;70.18;;;10.60;99.90;;;;;;5078011;28;20082;-72
2020/12/24 03:07:38;;;;;;;109.43;68.55;;;10.60;99.90;;;;;;5102811;28;20028;-72
2020/12/24 03:10:05;;;;;;;96.55;67.38;;;10.50;99.90;;;;;;5076242;28;20036;-72
2020/12/24 03:12:30;;;;;;;106.05;70.55;;;10.50;99.90;;;;;;5082997;28;20077;-74
2020/12/24 03:14:56;;;;;;;108.10;72.35;;;10.40;99.90;;;;;;5076818;28;20024;-71
2020/12/24 03:17:22;;;;;;;114.80;75.10;;;10.40;99.90;;;;;;5087438;28;20020;-71
2020/12/24 03:19:48;;;;;;;116.88;77.75;;;10.50;99.90;;;;;;5081375;28;20023;-71
2020/12/24 03:22:14;;;;;;;131.70;84.40;;;10.60;99.90;;;;;;5084088;28;20029;-72
2020/12/24 03:24:40;;;;;;;131.07;84.57;;;10.70;99.90;;;;;;5078808;28;20016;-72
2020/12/24 03:27:05;;;;;;;131.82;88.03;;;10.60;99.90;;;;;;5089319;28;20487;-72
2020/12/24 03:29:31;;;;;;;143.07;93.05;;;10.60;99.90;;;;;;5077869;28;20554;-71
2020/12/24 03:31:57;;;;;;;153.85;98.55;;;10.60;99.90;;;;;;5076198;28;21725;-71
2020/12/24 03:34:24;;;;;;;169.65;107.35;;;10.60;99.90;;;;;;5074950;28;20080;-72
2020/12/24 03:36:50;;;;;;;168.02;106.15;;;10.70;99.90;;;;;;5089479;28;20048;-70
2020/12/24 03:39:15;;;;;;;161.38;107.20;;;10.60;99.90;;;;;;5087131;28;20036;-71
2020/12/24 03:41:41;;;;;;;178.93;106.47;;;10.50;99.90;;;;;;5073996;28;20101;-73
2020/12/24 03:44:07;;;;;;;174.95;109.97;;;10.30;99.90;;;;;;5086835;28;20036;-72
2020/12/24 03:46:33;;;;;;;168.75;106.63;;;10.30;99.90;;;;;;5091675;28;20034;-71
2020/12/24 03:48:59;;;;;;;144.43;101.60;;;10.30;99.90;;;;;;5088131;28;20418;-71
2020/12/24 03:51:25;;;;;;;151.95;101.57;;;10.30;99.90;;;;;;5092631;28;20053;-72
2020/12/24 03:53:51;;;;;;;165.32;106.28;;;10.40;99.90;;;;;;5090176;28;20024;-72
2020/12/24 03:56:17;;;;;;;165.60;107.47;;;10.40;99.90;;;;;;5081981;28;20107;-72
2020/12/24 03:58:42;;;;;;;166.20;105.40;;;10.40;99.90;;;;;;5079417;28;20032;-71
2020/12/24 04:01:10;;;;;;;167.85;110.18;;;10.40;99.90;;;;;;5077416;28;20024;-70
2020/12/24 04:03:36;;;;;;;163.93;108.90;;;10.40;99.90;;;;;;5092781;28;20028;-71
2020/12/24 04:06:04;;;;;;;155.85;100.30;;;10.40;99.90;;;;;;5085116;28;20447;-73
2020/12/24 04:08:29;;;;;;;159.93;100.30;;;10.40;99.90;;;;;;5090964;28;20053;-72
2020/12/24 04:10:55;;;;;;;164.68;105.00;;;10.40;99.90;;;;;;5083977;28;20070;-74
2020/12/24 04:13:21;;;;;;;157.85;102.05;;;10.40;99.90;;;;;;5087813;28;20024;-73
2020/12/24 04:15:47;;;;;;;169.57;107.57;;;10.50;99.90;;;;;;5076865;28;20086;-73
2020/12/24 04:18:12;;;;;;;157.77;102.03;;;10.50;99.90;;;;;;5081133;28;20024;-72
2020/12/24 04:20:38;;;;;;;173.98;110.00;;;10.50;99.90;;;;;;5080893;28;20051;-76
2020/12/24 04:23:04;;;;;;;177.88;110.63;;;10.40;99.90;;;;;;5090480;28;20103;-73
2020/12/24 04:25:29;;;;;;;186.30;110.05;;;10.40;99.90;;;;;;5092481;28;20070;-70
2020/12/24 04:27:55;;;;;;;168.00;107.28;;;10.30;99.90;;;;;;5081166;28;20020;-74
2020/12/24 04:30:21;;;;;;;171.32;107.72;;;10.30;99.90;;;;;;5085831;28;20032;-72
2020/12/24 04:32:47;;;;;;;163.52;104.45;;;10.30;99.90;;;;;;5083512;28;20028;-72
2020/12/24 04:35:12;;;;;;;151.02;99.70;;;10.30;99.90;;;;;;5075153;28;20016;-74
2020/12/24 04:37:38;;;;;;;157.73;102.10;;;10.40;99.90;;;;;;5091182;28;20054;-72
2020/12/24 04:40:04;;;;;;;156.45;100.13;;;10.50;99.90;;;;;;5089218;28;20024;-73
2020/12/24 04:42:31;;;;;;;156.10;101.75;;;10.50;99.90;;;;;;5085777;28;20042;-72
2020/12/24 04:44:59;;;;;;;166.30;103.30;;;10.40;99.90;;;;;;5090788;28;20661;-73
2020/12/24 04:47:25;;;;;;;166.00;104.63;;;10.30;99.90;;;;;;5085598;28;20154;-70
2020/12/24 04:49:52;;;;;;;161.55;104.30;;;10.30;99.90;;;;;;5084053;28;20040;-70
2020/12/24 04:52:18;;;;;;;168.70;104.90;;;10.30;99.90;;;;;;5083881;28;20031;-71
2020/12/24 04:54:46;;;;;;;167.30;103.15;;;10.30;99.90;;;;;;5090518;28;20024;-71
2020/12/24 04:57:12;;;;;;;163.93;102.68;;;10.20;99.90;;;;;;5093073;28;20379;-73
2020/12/24 04:59:38;;;;;;;159.23;99.82;;;10.30;99.90;;;;;;5092581;28;20020;-71
2020/12/24 05:02:05;;;;;;;161.05;97.60;;;10.30;99.90;;;;;;5079743;28;20704;-72
2020/12/24 05:04:32;;;;;;;156.75;95.05;;;10.40;99.90;;;;;;5082136;28;20074;-71
2020/12/24 05:07:06;;;;;;;155.35;93.43;;;10.40;99.90;;;;;;5089418;28;20583;-70
2020/12/24 05:09:35;;;;;;;152.93;92.15;;;10.40;99.90;;;;;;5086001;28;20024;-70
2020/12/24 05:12:01;;;;;;;147.82;90.32;;;10.30;99.90;;;;;;5087025;28;20025;-71
2020/12/24 05:14:29;;;;;;;154.13;91.43;;;10.40;99.90;;;;;;5077042;28;20070;-71
2020/12/24 05:17:06;;;;;;;156.80;92.68;;;10.50;99.90;;;;;;5081705;28;20073;-72
2020/12/24 05:19:49;;;;;;;156.55;94.82;;;10.50;99.90;;;;;;5092551;28;20031;-71
2020/12/24 05:22:20;;;;;;;155.10;93.90;;;10.40;99.90;;;;;;5089856;28;20741;-71
2020/12/24 05:24:46;;;;;;;161.75;95.13;;;10.40;99.90;;;;;;5080385;28;20411;-70
2020/12/24 05:27:16;;;;;;;175.90;100.85;;;10.30;99.90;;;;;;5078408;28;20036;-70
2020/12/24 05:29:44;;;;;;;172.48;97.30;;;10.40;99.90;;;;;;5085813;28;20506;-72
2020/12/24 05:32:10;;;;;;;180.55;97.75;;;10.30;99.90;;;;;;5081862;28;20082;-73
2020/12/24 05:34:37;;;;;;;170.05;92.97;;;10.30;99.90;;;;;;5090415;28;20066;-72
2020/12/24 05:37:14;;;;;;;167.30;94.00;;;10.30;99.90;;;;;;5081273;28;20020;-72
2020/12/24 05:39:41;;;;;;;163.27;93.38;;;10.30;99.90;;;;;;5071945;28;20425;-74
2020/12/24 05:42:08;;;;;;;172.18;94.60;;;10.40;99.90;;;;;;5080875;28;20056;-72
2020/12/24 05:44:34;;;;;;;169.00;95.03;;;10.40;99.90;;;;;;5083341;28;20036;-72
2020/12/24 05:47:00;;;;;;;177.20;100.78;;;10.30;99.90;;;;;;5089085;28;20016;-72
2020/12/24 05:49:27;;;;;;;162.68;93.50;;;10.30;99.90;;;;;;5089590;28;20628;-73
2020/12/24 05:51:54;;;;;;;158.05;94.15;;;10.40;99.90;;;;;;5082265;28;20031;-72
2020/12/24 05:54:21;;;;;;;169.73;96.57;;;10.40;99.90;;;;;;5084009;28;20020;-72
2020/12/24 05:56:47;;;;;;;171.82;99.53;;;10.40;99.90;;;;;;5079315;28;20093;-72
2020/12/24 05:59:24;;;;;;;173.80;96.22;;;10.40;99.90;;;;;;5080587;28;20044;-73
2020/12/24 06:02:05;;;;;;;175.77;95.07;;;10.40;99.90;;;;;;5083533;28;20107;-73
2020/12/24 06:04:46;;;;;;;194.60;108.07;;;10.30;99.90;;;;;;5077109;28;20021;-71
2020/12/24 06:07:30;;;;;;;185.48;100.15;;;10.30;99.90;;;;;;5077699;28;20024;-72
2020/12/24 06:10:07;;;;;;;183.93;94.72;;;10.30;99.90;;;;;;5080274;28;20066;-74
2020/12/24 06:12:33;;;;;;;178.10;94.57;;;10.30;99.90;;;;;;5072696;28;20029;-73
2020/12/24 06:15:01;;;;;;;182.30;95.60;;;10.40;99.90;;;;;;5079275;28;20050;-73
2020/12/24 06:17:28;;;;;;;179.38;92.22;;;10.40;99.90;;;;;;5075335;28;20448;-72
2020/12/24 06:19:54;;;;;;;185.73;93.60;;;10.40;99.90;;;;;;5078156;28;20027;-72
2020/12/24 06:22:21;;;;;;;174.95;92.00;;;10.50;99.90;;;;;;5075714;28;20024;-71
2020/12/24 06:24:55;;;;;;;176.43;97.45;;;10.50;99.90;;;;;;5084452;28;20134;-73
2020/12/24 06:27:30;;;;;;;194.60;92.80;;;10.60;99.90;;;;;;5083647;28;20055;-73
2020/12/24 06:30:11;;;;;;;176.48;93.47;;;10.50;99.90;;;;;;5087534;28;20242;-71
2020/12/24 06:32:48;;;;;;;190.40;96.28;;;10.50;99.90;;;;;;5083891;28;20024;-71
2020/12/24 06:35:36;;;;;;;178.15;92.90;;;10.50;99.90;;;;;;5078630;28;20016;-72
2020/12/24 06:38:04;;;;;;;205.90;93.00;;;10.50;99.90;;;;;;5071750;28;20487;-71
2020/12/24 06:40:36;;;;;;;194.82;93.78;;;10.40;99.90;;;;;;5081588;28;20364;-70
2020/12/24 06:43:03;;;;;;;205.43;96.10;;;10.40;99.90;;;;;;5088677;28;20507;-72
2020/12/24 06:45:29;;;;;;;194.90;94.32;;;10.40;99.90;;;;;;5081500;28;20491;-72
2020/12/24 06:48:16;;;;;;;190.20;93.85;;;10.50;99.90;;;;;;5088295;28;20020;-73
2020/12/24 06:50:44;;;;;;;202.90;92.72;;;10.60;99.90;;;;;;5085671;28;20032;-72
2020/12/24 06:53:25;;;;;;;221.95;98.65;;;10.50;99.90;;;;;;5086953;28;20029;-72
2020/12/24 06:58:42;;;;;;;217.52;95.53;;;10.40;99.90;;;;;;5076635;28;20024;-72
2020/12/24 07:01:14;;;;;;;229.82;98.38;;;10.40;99.90;;;;;;5080073;28;20017;-73
2020/12/24 07:03:40;;;;;;;253.23;119.45;;;10.40;99.90;;;;;;5088158;28;20031;-72
2020/12/24 07:06:05;;;;;;;243.00;106.78;;;10.40;99.90;;;;;;5086861;28;20024;-72
2020/12/24 07:08:35;;;;;;;238.05;109.05;;;10.40;99.90;;;;;;5089563;28;20103;-72
2020/12/24 07:11:04;;;;;;;255.95;113.65;;;10.40;99.90;;;;;;5079517;28;20039;-74
2020/12/24 07:13:30;;;;;;;268.65;113.75;;;10.40;99.90;;;;;;5090831;28;20020;-73
2020/12/24 07:15:55;;;;;;;235.98;107.45;;;10.30;99.90;;;;;;5092700;28;20123;-73
2020/12/24 07:18:24;;;;;;;230.63;101.78;;;10.40;99.90;;;;;;5094407;28;20051;-72
2020/12/24 07:20:52;;;;;;;206.77;93.95;;;10.50;99.90;;;;;;5094325;28;20074;-73
2020/12/24 07:23:46;;;;;;;197.18;94.13;;;10.60;99.90;;;;;;5093274;28;20028;-72
2020/12/24 07:26:12;;;;;;;201.38;92.25;;;10.60;99.90;;;;;;5093713;28;20077;-73
2020/12/24 07:28:41;;;;;;;204.65;91.75;;;10.60;99.90;;;;;;5093845;28;20027;-73
2020/12/24 07:31:10;;;;;;;215.90;93.57;;;10.60;99.90;;;;;;5089822;28;20016;-73
2020/12/24 07:33:45;;;;;;;209.52;92.03;;;10.80;99.90;;;;;;5091834;28;20085;-73
2020/12/24 07:36:11;;;;;;;213.43;94.80;;;10.60;99.90;;;;;;5093934;28;20031;-72
2020/12/24 07:38:37;;;;;;;237.02;98.57;;;10.70;99.90;;;;;;5092277;28;20455;-72
2020/12/24 07:41:03;;;;;;;216.90;98.53;;;10.70;99.90;;;;;;5093518;28;20024;-72
2020/12/24 07:43:29;;;;;;;217.43;96.95;;;10.70;99.90;;;;;;5093282;28;20103;-72
2020/12/24 07:45:55;;;;;;;209.30;95.57;;;10.60;99.90;;;;;;5093530;28;20048;-72
2020/12/24 07:48:23;;;;;;;208.88;93.22;;;10.60;99.90;;;;;;5093646;28;20031;-71
2020/12/24 07:50:52;;;;;;;218.32;97.50;;;10.60;99.90;;;;;;5093544;28;20444;-73
2020/12/24 07:53:20;;;;;;;201.43;94.07;;;10.60;99.90;;;;;;5092337;28;20510;-72
2020/12/24 07:55:46;;;;;;;193.27;91.13;;;10.70;99.90;;;;;;5092557;28;20047;-74
2020/12/24 07:58:13;;;;;;;202.07;92.03;;;10.70;99.90;;;;;;5093258;28;20028;-71
2020/12/24 08:00:47;;;;;;;207.63;98.03;;;10.70;99.90;;;;;;5092995;28;20101;-71
2020/12/24 08:03:17;;;;;;;205.30;94.68;;;10.70;99.90;;;;;;5092361;28;20395;-71
2020/12/24 08:05:44;;;;;;;218.38;96.15;;;10.60;99.90;;;;;;5093087;28;20107;-73
2020/12/24 08:08:11;;;;;;;218.68;105.18;;;10.60;99.90;;;;;;5093142;28;20035;-72
2020/12/24 08:10:45;;;;;;;222.25;99.07;;;10.50;99.90;;;;;;5092853;28;20075;-71
2020/12/24 08:13:11;;;;;;;207.82;99.57;;;10.60;99.90;;;;;;5092476;28;20107;-72
2020/12/24 08:15:41;;;;;;;220.85;102.97;;;10.70;99.90;;;;;;5093014;28;20506;-72
2020/12/24 08:18:13;;;;;;;206.38;98.13;;;10.60;99.90;;;;;;5088664;28;20053;-74
2020/12/24 08:20:59;;;;;;;203.60;98.90;;;10.70;99.90;;;;;;5088604;28;20016;-73
2020/12/24 08:23:40;;;;;;;232.23;102.30;;;10.70;99.90;;;;;;5075447;28;20151;-73
2020/12/24 08:26:06;;;;;;;209.93;101.22;;;10.80;99.90;;;;;;5073744;28;20020;-72
2020/12/24 08:28:33;;;;;;;209.13;102.30;;;10.80;99.90;;;;;;5092975;28;20099;-72
2020/12/24 08:31:00;;;;;;;210.65;105.07;;;10.80;99.90;;;;;;5084274;28;20423;-70
2020/12/24 08:33:27;;;;;;;204.15;107.85;;;10.90;99.90;;;;;;5087605;28;21106;-70
2020/12/24 08:35:53;;;;;;;204.70;107.65;;;10.80;99.90;;;;;;5088241;28;20027;-71
2020/12/24 08:38:19;;;;;;;204.00;104.90;;;10.80;99.90;;;;;;5092703;28;20027;-70
2020/12/24 08:40:46;;;;;;;207.50;103.03;;;10.80;99.90;;;;;;5092621;28;20099;-71
2020/12/24 08:43:13;;;;;;;204.45;106.25;;;10.90;99.90;;;;;;5092667;28;20055;-68
2020/12/24 08:45:47;;;;;;;200.68;101.28;;;10.90;99.90;;;;;;5092812;28;20028;-70
2020/12/24 08:48:34;;;;;;;202.18;103.32;;;11.00;99.90;;;;;;5091636;28;20028;-70
2020/12/24 08:51:10;;;;;;;212.40;107.25;;;11.10;99.90;;;;;;5092948;28;20109;-71
2020/12/24 08:53:36;;;;;;;183.07;99.85;;;11.20;99.90;;;;;;5092544;28;20158;-69
2020/12/24 08:56:14;;;;;;;180.15;97.82;;;11.30;99.90;;;;;;5092335;28;20058;-72
2020/12/24 08:58:53;;;;;;;184.88;100.88;;;11.40;99.90;;;;;;5091099;28;20077;-73
2020/12/24 09:01:20;;;;;;;169.98;101.10;;;11.50;99.90;;;;;;5091994;28;20031;-69
2020/12/24 09:03:47;;;;;;;169.68;97.15;;;11.50;99.90;;;;;;5091550;28;20069;-71
2020/12/24 09:06:15;;;;;;;166.75;97.40;;;11.50;99.90;;;;;;5091598;28;20031;-71
2020/12/24 09:08:51;;;;;;;154.23;92.72;;;11.50;99.90;;;;;;5091574;28;20099;-70
2020/12/24 09:11:27;;;;;;;167.15;95.60;;;11.60;99.90;;;;;;5091186;28;20067;-71
2020/12/24 09:14:00;;;;;;;166.30;94.10;;;11.70;99.90;;;;;;5091356;28;20020;-71
2020/12/24 09:16:27;;;;;;;156.15;94.72;;;11.70;99.90;;;;;;5091848;28;20024;-70
2020/12/24 09:19:06;;;;;;;160.63;94.07;;;11.80;99.90;;;;;;5091345;28;20031;-71
2020/12/24 09:21:36;;;;;;;151.13;95.35;;;11.70;99.90;;;;;;5091895;28;20483;-69
2020/12/24 09:24:12;;;;;;;151.77;89.97;;;11.70;99.90;;;;;;5090419;28;20051;-70
2020/12/24 09:26:49;;;;;;;172.32;99.07;;;11.80;99.90;;;;;;5090157;28;20034;-65
2020/12/24 09:29:16;;;;;;;164.52;97.78;;;11.70;99.90;;;;;;5089891;28;20132;-66
2020/12/24 09:32:00;;;;;;;160.13;94.53;;;11.70;99.90;;;;;;5087577;28;20119;-65
2020/12/24 09:34:27;;;;;;;159.63;95.15;;;11.70;99.90;;;;;;5084064;28;20020;-69
2020/12/24 09:36:53;;;;;;;141.15;86.50;;;11.70;99.90;;;;;;5079784;28;20025;-73
2020/12/24 09:39:19;;;;;;;134.30;82.82;;;11.90;99.90;;;;;;5081811;28;20543;-70
2020/12/24 09:41:47;;;;;;;131.43;85.32;;;12.10;99.90;;;;;;5091293;28;20016;-71
2020/12/24 09:44:13;;;;;;;110.05;74.57;;;12.30;99.90;;;;;;5090795;28;20081;-72
2020/12/24 09:46:39;;;;;;;116.88;75.35;;;12.40;99.90;;;;;;5091314;28;20028;-70
2020/12/24 09:49:05;;;;;;;130.80;79.63;;;12.40;99.90;;;;;;5091459;28;20034;-71
2020/12/24 09:51:36;;;;;;;106.47;68.03;;;12.50;99.90;;;;;;5091290;28;20717;-72
2020/12/24 09:54:05;;;;;;;104.32;66.90;;;12.40;99.90;;;;;;5091162;28;20464;-72
2020/12/24 09:56:32;;;;;;;83.75;57.47;;;12.40;99.90;;;;;;5089517;28;20027;-71
2020/12/24 09:58:58;;;;;;;93.40;58.60;;;12.50;99.90;;;;;;5091114;28;20036;-71
2020/12/24 10:01:24;;;;;;;87.97;58.10;;;12.70;99.90;;;;;;5091223;28;20089;-70
2020/12/24 10:03:49;;;;;;;84.50;55.88;;;12.70;99.90;;;;;;5089494;28;20070;-69
2020/12/24 10:06:15;;;;;;;88.20;57.17;;;12.70;99.90;;;;;;5091139;28;20024;-71
2020/12/24 10:08:41;;;;;;;72.78;53.00;;;12.80;99.90;;;;;;5090909;28;20036;-71
2020/12/24 10:11:12;;;;;;;73.32;51.00;;;13.00;99.90;;;;;;5090790;28;20036;-71
2020/12/24 10:13:38;;;;;;;76.43;49.95;;;13.00;99.90;;;;;;5091051;28;20022;-70
2020/12/24 10:16:04;;;;;;;71.32;47.67;;;13.00;99.90;;;;;;5090816;28;20028;-71
2020/12/24 10:18:29;;;;;;;73.15;46.70;;;13.00;99.90;;;;;;5091054;28;20591;-70
2020/12/24 10:20:55;;;;;;;76.72;46.63;;;13.00;99.90;;;;;;5090785;28;20035;-70
2020/12/24 10:23:21;;;;;;;67.90;44.47;;;13.00;99.90;;;;;;5090445;28;20032;-71
2020/12/24 10:25:47;;;;;;;69.75;44.83;;;13.00;99.90;;;;;;5090534;28;20036;-71
2020/12/24 10:28:12;;;;;;;67.82;42.35;;;13.00;99.90;;;;;;5089673;28;20045;-71
2020/12/24 10:30:38;;;;;;;67.70;40.92;;;13.10;99.90;;;;;;5090722;28;20059;-71
2020/12/24 10:33:04;;;;;;;62.00;40.92;;;13.10;99.90;;;;;;5090486;28;20031;-71
2020/12/24 10:35:31;;;;;;;51.50;37.03;;;13.10;99.90;;;;;;5091533;28;20024;-69
2020/12/24 10:37:56;;;;;;;33.28;22.02;;;13.20;99.90;;;;;;5090604;28;20103;-72
2020/12/24 10:40:22;;;;;;;29.40;17.58;;;13.20;99.90;;;;;;5091453;28;20111;-71
2020/12/24 10:42:48;;;;;;;21.42;11.85;;;13.20;99.90;;;;;;5090782;28;20027;-71
2020/12/24 10:45:14;;;;;;;14.88;9.52;;;13.40;99.90;;;;;;5089336;28;20028;-70
2020/12/24 10:47:40;;;;;;;11.07;8.43;;;13.50;99.90;;;;;;5090243;28;20411;-72
2020/12/24 10:50:08;;;;;;;15.15;8.68;;;13.60;99.90;;;;;;5090838;28;20024;-70
2020/12/24 10:52:34;;;;;;;13.80;8.57;;;13.60;99.90;;;;;;5090668;28;20052;-70
2020/12/24 10:55:00;;;;;;;13.15;7.45;;;13.70;99.90;;;;;;5090730;28;20081;-72
2020/12/24 10:57:25;;;;;;;16.92;8.80;;;13.70;99.90;;;;;;5090245;28;20113;-72
2020/12/24 10:59:51;;;;;;;9.55;6.13;;;13.70;99.90;;;;;;5090581;28;20032;-71
2020/12/24 11:02:17;;;;;;;11.20;6.20;;;13.90;99.90;;;;;;5091114;28;20044;-71
2020/12/24 11:04:44;;;;;;;11.73;6.88;;;13.90;99.90;;;;;;5090552;28;20073;-72
2020/12/24 11:07:10;;;;;;;14.65;7.80;;;13.80;99.90;;;;;;5088857;28;20036;-72
2020/12/24 11:09:36;;;;;;;14.52;6.45;;;13.90;99.90;;;;;;5090613;28;20028;-72
2020/12/24 11:12:01;;;;;;;11.02;6.32;;;14.00;99.90;;;;;;5090166;28;20073;-72
2020/12/24 11:14:29;;;;;;;11.90;5.18;;;14.10;99.90;;;;;;5088503;28;20039;-71
2020/12/24 11:16:58;;;;;;;7.13;5.22;;;14.00;99.90;;;;;;5090039;28;20030;-72
2020/12/24 11:19:24;;;;;;;7.80;5.15;;;14.00;99.90;;;;;;5090564;28;20055;-72
2020/12/24 11:21:50;;;;;;;12.10;6.45;;;13.90;99.90;;;;;;5089872;28;20055;-71
2020/12/24 11:24:16;;;;;;;12.35;6.30;;;13.90;99.90;;;;;;5089965;28;20510;-72
2020/12/24 11:26:41;;;;;;;12.45;4.90;;;13.80;99.90;;;;;;5090055;28;20391;-71
2020/12/24 11:29:08;;;;;;;11.13;4.68;;;13.80;99.90;;;;;;5090382;28;20395;-71
2020/12/24 11:31:37;;;;;;;9.98;4.88;;;13.80;99.90;;;;;;5090111;28;20024;-73
2020/12/24 11:34:04;;;;;;;5.65;5.00;;;13.90;99.90;;;;;;5090115;28;20498;-72
2020/12/24 11:36:30;;;;;;;14.63;4.95;;;13.80;99.90;;;;;;5088249;28;20031;-71
2020/12/24 11:38:59;;;;;;;7.82;4.25;;;13.80;99.90;;;;;;5088954;28;20048;-73
2020/12/24 11:41:26;;;;;;;10.80;4.60;;;13.90;99.90;;;;;;5089999;28;20027;-73
2020/12/24 11:43:53;;;;;;;7.57;4.43;;;14.00;99.90;;;;;;5090105;28;20028;-72
2020/12/24 11:46:20;;;;;;;18.80;4.80;;;13.90;99.90;;;;;;5088599;28;20480;-72
2020/12/24 11:48:47;;;;;;;6.90;3.97;;;13.80;99.90;;;;;;5088813;28;20032;-71
2020/12/24 11:51:13;;;;;;;7.93;4.75;;;13.90;99.90;;;;;;5088456;28;20027;-71
2020/12/24 11:53:40;;;;;;;8.82;4.95;;;13.80;99.90;;;;;;5089319;28;20024;-72
2020/12/24 11:56:10;;;;;;;18.30;4.63;;;13.90;99.90;;;;;;5090054;28;20028;-74
2020/12/24 11:58:36;;;;;;;11.68;4.60;;;13.90;99.90;;;;;;5090650;28;20452;-71
2020/12/24 12:01:02;;;;;;;8.18;5.35;;;13.90;99.90;;;;;;5093650;28;20075;-72
2020/12/24 12:03:28;;;;;;;8.45;4.35;;;13.90;99.90;;;;;;5092186;28;20034;-69
2020/12/24 12:05:53;;;;;;;9.95;4.45;;;13.90;99.90;;;;;;5093908;28;20032;-71
2020/12/24 12:08:19;;;;;;;10.80;4.47;;;13.90;99.90;;;;;;5088386;28;20031;-71
2020/12/24 12:10:45;;;;;;;10.48;5.50;;;13.80;99.90;;;;;;5093845;28;20070;-72
2020/12/24 12:13:11;;;;;;;13.02;5.03;;;13.90;99.90;;;;;;5093788;28;20047;-72
2020/12/24 12:15:37;;;;;;;9.35;4.85;;;13.90;99.90;;;;;;5093564;28;20024;-71
2020/12/24 12:18:05;;;;;;;12.38;4.63;;;13.80;99.90;;;;;;5084789;28;20041;-72
2020/12/24 12:20:32;;;;;;;12.25;4.53;;;13.80;99.90;;;;;;5091064;28;20141;-72
2020/12/24 12:22:58;;;;;;;14.35;5.00;;;13.80;99.90;;;;;;5093350;28;20452;-72
2020/12/24 12:25:24;;;;;;;8.63;4.93;;;13.80;99.90;;;;;;5073774;28;20066;-72